Time;durP1;ratioP1;P1;durP2;ratioP2;P2;SDS_P1;SDS_P2;PMS_P1;PMS_P2;Temp;Humidity;BMP_temperature;BMP_pressure;BME280_temperature;BME280_humidity;BME280_pressure;Samples;Min_cycle;Max_cycle;Signal;HPM_P1;HPM_P2
2021/10/12 04:30:46;;;;;;;28.83;16.97;;;8.80;99.90;;;;;;5994266;23;21365;-73
2021/10/12 04:33:16;;;;;;;23.13;16.03;;;8.90;99.90;;;;;;4963392;28;20453;-75
2021/10/12 04:35:42;;;;;;;30.83;15.33;;;8.90;99.90;;;;;;4971720;28;20877;-76
2021/10/12 04:38:08;;;;;;;25.60;15.60;;;8.90;99.90;;;;;;4971830;28;20423;-76
2021/10/12 04:40:35;;;;;;;30.10;16.87;;;8.90;99.90;;;;;;4971957;28;20437;-77
2021/10/12 04:43:05;;;;;;;38.00;18.10;;;8.90;99.90;;;;;;4971994;28;20616;-76
2021/10/12 04:45:30;;;;;;;25.20;16.50;;;8.90;99.90;;;;;;4972043;28;20558;-74
2021/10/12 04:47:56;;;;;;;33.40;16.50;;;8.90;99.90;;;;;;4972276;28;20452;-75
2021/10/12 04:50:22;;;;;;;25.10;17.23;;;8.90;99.90;;;;;;4971954;28;20525;-75
2021/10/12 04:52:47;;;;;;;33.10;18.07;;;8.90;99.90;;;;;;4973283;28;20198;-75
2021/10/12 04:55:13;;;;;;;30.63;18.60;;;8.90;99.90;;;;;;4975418;28;20193;-76
2021/10/12 04:57:38;;;;;;;36.43;17.50;;;8.90;99.90;;;;;;4975834;28;20181;-75
2021/10/12 05:00:06;;;;;;;28.30;17.70;;;8.90;99.90;;;;;;4975332;28;20194;-75
2021/10/12 05:02:31;;;;;;;29.73;17.13;;;8.90;99.90;;;;;;4975280;28;20537;-76
2021/10/12 05:04:57;;;;;;;28.87;18.57;;;8.90;99.90;;;;;;4975251;28;20469;-76
2021/10/12 05:07:22;;;;;;;29.13;18.37;;;8.90;99.90;;;;;;4975428;28;20180;-76
2021/10/12 05:09:48;;;;;;;29.00;17.70;;;8.90;99.90;;;;;;4975279;28;20254;-77
2021/10/12 05:12:18;;;;;;;28.57;17.80;;;8.80;99.90;;;;;;4975226;28;20238;-76
2021/10/12 05:14:49;;;;;;;31.97;18.67;;;8.90;99.90;;;;;;4973954;28;20196;-77
2021/10/12 05:17:21;;;;;;;27.63;19.20;;;8.80;99.90;;;;;;4974097;28;20424;-76
2021/10/12 05:19:50;;;;;;;30.80;19.00;;;8.80;99.90;;;;;;4974252;28;20428;-75
2021/10/12 05:22:16;;;;;;;30.10;18.23;;;8.80;99.90;;;;;;4975012;28;20434;-76
2021/10/12 05:24:42;;;;;;;29.07;17.43;;;8.80;99.90;;;;;;4974248;28;20471;-75
2021/10/12 05:27:08;;;;;;;29.33;18.37;;;8.80;99.90;;;;;;4974569;28;20203;-76
2021/10/12 05:29:34;;;;;;;31.27;17.40;;;8.80;99.90;;;;;;4975226;28;20527;-75
2021/10/12 05:32:02;;;;;;;31.80;18.17;;;8.80;99.90;;;;;;4973298;28;20458;-76
2021/10/12 05:34:41;;;;;;;31.63;17.73;;;8.80;99.90;;;;;;4973356;28;20474;-74
2021/10/12 05:37:06;;;;;;;25.93;16.80;;;8.80;99.90;;;;;;4973791;28;20900;-77
2021/10/12 05:39:32;;;;;;;32.23;18.13;;;8.80;99.90;;;;;;4974792;28;20182;-76
2021/10/12 05:41:57;;;;;;;31.73;18.97;;;8.90;99.90;;;;;;4974568;28;20295;-74
2021/10/12 05:44:23;;;;;;;25.33;16.27;;;8.90;99.90;;;;;;4974623;28;20242;-76
2021/10/12 05:46:49;;;;;;;26.53;18.07;;;8.90;99.90;;;;;;4974709;28;20181;-74
2021/10/12 05:49:15;;;;;;;28.77;17.83;;;8.90;99.90;;;;;;4974699;28;20178;-77
2021/10/12 05:51:43;;;;;;;28.63;16.60;;;8.90;99.90;;;;;;4974550;28;20796;-77
2021/10/12 05:54:09;;;;;;;32.43;17.10;;;8.90;99.90;;;;;;4974530;28;20175;-75
2021/10/12 05:56:46;;;;;;;33.87;17.90;;;8.90;99.90;;;;;;4974460;28;20416;-76
2021/10/12 05:59:11;;;;;;;34.10;16.70;;;8.90;99.90;;;;;;4974565;28;20457;-77
2021/10/12 06:01:40;;;;;;;19.60;14.10;;;8.90;99.90;;;;;;4971546;28;20461;-77
2021/10/12 06:04:06;;;;;;;24.43;16.17;;;8.90;99.90;;;;;;4965267;28;20175;-75
2021/10/12 06:06:32;;;;;;;21.43;14.57;;;8.90;99.90;;;;;;4954821;29;20468;-75
2021/10/12 06:08:57;;;;;;;23.63;14.90;;;8.90;99.90;;;;;;4955655;29;20180;-79
2021/10/12 06:11:23;;;;;;;24.43;14.57;;;8.90;99.90;;;;;;4954701;28;20611;-78
2021/10/12 06:13:49;;;;;;;28.87;17.37;;;8.90;99.90;;;;;;4955149;28;20176;-76
2021/10/12 06:16:15;;;;;;;29.50;14.47;;;8.90;99.90;;;;;;4954927;28;20195;-75
2021/10/12 06:18:41;;;;;;;27.23;15.73;;;8.90;99.90;;;;;;4953628;29;20806;-76
2021/10/12 06:21:06;;;;;;;22.73;15.27;;;8.90;99.90;;;;;;4954392;28;20490;-78
2021/10/12 06:23:32;;;;;;;30.37;15.60;;;8.90;99.90;;;;;;4954423;29;20210;-77
2021/10/12 06:25:58;;;;;;;31.73;17.43;;;9.00;99.90;;;;;;4954758;29;20700;-76
2021/10/12 06:28:24;;;;;;;30.50;15.80;;;9.00;99.90;;;;;;4954873;29;20554;-76
2021/10/12 06:30:49;;;;;;;27.13;15.47;;;9.00;99.90;;;;;;4954021;29;20266;-77
2021/10/12 06:33:15;;;;;;;27.50;15.17;;;9.00;99.90;;;;;;4954460;29;20427;-77
2021/10/12 06:35:40;;;;;;;29.73;16.27;;;9.00;99.90;;;;;;4954545;28;20204;-76
2021/10/12 06:38:06;;;;;;;29.87;17.30;;;9.00;99.90;;;;;;4954559;28;20230;-77
2021/10/12 06:40:33;;;;;;;27.03;16.17;;;9.10;99.90;;;;;;4953796;28;20185;-76
2021/10/12 06:42:58;;;;;;;26.70;16.40;;;9.10;99.90;;;;;;4954271;28;20449;-76
2021/10/12 06:45:24;;;;;;;33.57;16.43;;;9.10;99.90;;;;;;4954315;29;20465;-75
2021/10/12 06:47:50;;;;;;;30.43;17.67;;;9.10;99.90;;;;;;4954476;29;20206;-76
2021/10/12 06:50:18;;;;;;;26.03;17.07;;;9.10;99.90;;;;;;4954184;28;20219;-77
2021/10/12 06:52:44;;;;;;;39.03;17.30;;;9.10;99.90;;;;;;4954303;28;20199;-76
2021/10/12 06:55:10;;;;;;;28.60;15.40;;;9.10;99.90;;;;;;4954406;28;20444;-75
2021/10/12 06:57:37;;;;;;;23.47;15.57;;;9.10;99.90;;;;;;4954343;28;20423;-78
2021/10/12 07:00:08;;;;;;;32.70;16.70;;;9.20;99.90;;;;;;4954456;28;20510;-75
2021/10/12 07:02:34;;;;;;;29.13;15.90;;;9.20;99.90;;;;;;4984782;23;20545;-75
2021/10/12 07:04:59;;;;;;;27.67;15.90;;;9.20;99.90;;;;;;4985211;28;20977;-75
2021/10/12 07:07:25;;;;;;;28.60;15.50;;;9.20;99.90;;;;;;4980069;28;20189;-75
2021/10/12 07:09:51;;;;;;;28.07;15.97;;;9.20;99.90;;;;;;4972940;28;20719;-76
2021/10/12 07:12:16;;;;;;;23.17;14.37;;;9.30;99.90;;;;;;4958266;28;20455;-75
2021/10/12 07:14:42;;;;;;;20.77;14.73;;;9.30;99.90;;;;;;4953408;28;20551;-75
2021/10/12 07:17:07;;;;;;;25.13;16.27;;;9.30;99.90;;;;;;4953605;29;20239;-76
2021/10/12 07:19:33;;;;;;;22.47;15.53;;;9.30;99.90;;;;;;4953618;29;20188;-78
2021/10/12 07:21:59;;;;;;;24.20;14.40;;;9.30;99.90;;;;;;4963204;28;20221;-76
2021/10/12 07:24:24;;;;;;;24.70;15.40;;;9.40;99.90;;;;;;4972528;28;20309;-75
2021/10/12 07:26:51;;;;;;;21.73;15.43;;;9.40;99.90;;;;;;4973282;28;20198;-76
2021/10/12 07:29:17;;;;;;;22.80;14.77;;;9.40;99.90;;;;;;4973016;28;20637;-76
2021/10/12 07:31:43;;;;;;;25.60;14.93;;;9.50;99.90;;;;;;4973326;28;20473;-75
2021/10/12 07:34:09;;;;;;;22.33;15.40;;;9.50;99.90;;;;;;4972572;28;20173;-74
2021/10/12 07:36:37;;;;;;;27.67;15.80;;;9.50;99.90;;;;;;4972933;28;20183;-76
2021/10/12 07:39:04;;;;;;;26.50;13.80;;;9.50;99.90;;;;;;4972277;28;20415;-75
2021/10/12 07:41:29;;;;;;;21.53;15.30;;;9.50;99.90;;;;;;4971903;28;20489;-76
2021/10/12 07:43:56;;;;;;;30.23;15.07;;;9.60;99.90;;;;;;4972598;28;20453;-75
2021/10/12 07:46:21;;;;;;;18.90;13.70;;;9.60;99.90;;;;;;4972649;28;20215;-76
2021/10/12 07:48:47;;;;;;;19.47;12.67;;;9.60;99.90;;;;;;4972627;28;20427;-76
2021/10/12 07:51:13;;;;;;;22.70;14.60;;;9.70;99.90;;;;;;4972419;28;20540;-78
2021/10/12 07:53:39;;;;;;;23.37;15.10;;;9.70;99.90;;;;;;4972332;28;20175;-76
2021/10/12 07:56:09;;;;;;;16.57;12.20;;;9.70;99.90;;;;;;4972647;28;20190;-75
2021/10/12 07:58:35;;;;;;;19.27;13.27;;;9.80;99.90;;;;;;4972775;28;20418;-75
2021/10/12 08:01:03;;;;;;;19.40;12.90;;;9.80;99.90;;;;;;4972579;28;20431;-74
2021/10/12 08:03:28;;;;;;;21.50;12.50;;;9.80;99.90;;;;;;4972472;28;20446;-75
2021/10/12 08:05:54;;;;;;;19.17;11.83;;;9.80;99.90;;;;;;4972418;28;20466;-76
2021/10/12 08:08:20;;;;;;;16.30;11.73;;;9.80;99.90;;;;;;4972353;28;20659;-76
2021/10/12 08:10:45;;;;;;;21.33;11.30;;;9.80;99.90;;;;;;4972346;28;20450;-75
2021/10/12 08:13:16;;;;;;;20.37;11.73;;;9.90;99.90;;;;;;4972155;28;20178;-76
2021/10/12 08:15:47;;;;;;;21.10;10.90;;;9.90;99.90;;;;;;4972855;28;20194;-75
2021/10/12 08:18:12;;;;;;;13.90;10.50;;;10.00;99.90;;;;;;4972476;28;20415;-75
2021/10/12 08:20:38;;;;;;;14.77;10.37;;;10.10;99.90;;;;;;4972266;28;20421;-75
2021/10/12 08:23:04;;;;;;;18.07;11.30;;;10.10;99.90;;;;;;4970833;28;20191;-76
2021/10/12 08:25:29;;;;;;;15.70;10.63;;;10.20;99.90;;;;;;4972392;28;20213;-76
2021/10/12 08:27:54;;;;;;;19.00;11.80;;;10.30;99.90;;;;;;4975475;28;20206;-77
2021/10/12 08:30:20;;;;;;;21.10;12.47;;;10.40;99.90;;;;;;4975740;28;20632;-76
2021/10/12 08:32:45;;;;;;;19.00;12.27;;;10.50;99.90;;;;;;4975659;28;20210;-75
2021/10/12 08:35:11;;;;;;;15.33;11.37;;;10.60;99.90;;;;;;4975713;28;20655;-74
2021/10/12 08:37:38;;;;;;;17.40;11.37;;;10.70;99.90;;;;;;4976225;28;20164;-74
2021/10/12 08:40:11;;;;;;;13.50;11.47;;;10.90;99.90;;;;;;4975466;28;20184;-75
2021/10/12 08:42:43;;;;;;;16.10;11.27;;;11.00;99.90;;;;;;4975677;28;20445;-75
2021/10/12 08:45:09;;;;;;;17.07;10.97;;;11.00;99.90;;;;;;4974251;28;20459;-74
2021/10/12 08:47:36;;;;;;;22.17;11.73;;;11.00;99.90;;;;;;4975848;28;20410;-76
2021/10/12 08:50:05;;;;;;;19.73;11.13;;;10.90;99.90;;;;;;4974277;28;20184;-74
2021/10/12 08:52:30;;;;;;;13.90;10.30;;;10.90;99.90;;;;;;4975429;28;20427;-76
2021/10/12 08:54:56;;;;;;;16.53;11.60;;;10.90;99.90;;;;;;4974391;28;20422;-74
2021/10/12 08:57:29;;;;;;;17.23;10.10;;;10.90;99.90;;;;;;4975732;28;20180;-74
2021/10/12 08:59:57;;;;;;;13.83;9.70;;;11.00;99.90;;;;;;4975479;28;20585;-75
2021/10/12 09:02:25;;;;;;;17.20;9.33;;;11.00;99.90;;;;;;4975442;28;20455;-75
2021/10/12 09:04:51;;;;;;;14.53;9.10;;;11.10;99.90;;;;;;4975455;28;20459;-75
2021/10/12 09:07:25;;;;;;;13.10;8.40;;;11.20;99.90;;;;;;4975357;28;20462;-75
2021/10/12 09:09:53;;;;;;;10.03;8.10;;;11.20;99.90;;;;;;4974089;28;20587;-74
2021/10/12 09:12:37;;;;;;;14.70;8.60;;;11.30;99.90;;;;;;4973840;28;20440;-75
2021/10/12 09:15:04;;;;;;;12.03;8.70;;;11.30;99.90;;;;;;4973656;28;20387;-75
2021/10/12 09:17:31;;;;;;;9.13;8.20;;;11.50;99.90;;;;;;4975342;28;20493;-74
2021/10/12 09:19:57;;;;;;;9.90;8.27;;;11.60;99.90;;;;;;4974803;28;20416;-76
2021/10/12 09:22:23;;;;;;;11.10;8.97;;;11.60;99.90;;;;;;4973684;28;20952;-75
2021/10/12 09:24:49;;;;;;;12.43;8.37;;;11.60;99.90;;;;;;4971249;28;20465;-76
2021/10/12 09:27:16;;;;;;;14.23;9.73;;;11.60;99.90;;;;;;4960925;28;20203;-78
2021/10/12 09:32:10;;;;;;;13.93;7.83;;;11.50;99.90;;;;;;4954899;28;20515;-75
2021/10/12 09:34:37;;;;;;;12.43;8.53;;;11.50;99.90;;;;;;4955551;28;20416;-77
2021/10/12 09:37:05;;;;;;;12.27;7.40;;;11.50;99.90;;;;;;4955849;28;20909;-77
2021/10/12 09:39:34;;;;;;;13.83;7.27;;;11.70;99.90;;;;;;4954644;28;20499;-75
2021/10/12 09:42:02;;;;;;;9.70;7.57;;;11.60;99.90;;;;;;4955252;28;20468;-75
2021/10/12 09:44:28;;;;;;;11.70;7.37;;;11.50;99.90;;;;;;4954091;29;20826;-76
2021/10/12 09:47:06;;;;;;;11.50;7.70;;;11.50;99.90;;;;;;4955290;28;20455;-76
2021/10/12 09:49:32;;;;;;;12.40;8.50;;;11.40;99.90;;;;;;4955389;28;20412;-77
2021/10/12 09:52:03;;;;;;;25.23;8.93;;;11.30;99.90;;;;;;4955159;28;20428;-77
2021/10/12 09:54:36;;;;;;;20.20;8.80;;;11.20;99.90;;;;;;4954245;29;20855;-75
2021/10/12 09:57:03;;;;;;;18.73;9.53;;;11.00;99.90;;;;;;4955673;28;20412;-75
2021/10/12 09:59:30;;;;;;;12.60;9.87;;;10.90;99.90;;;;;;4955529;28;20412;-75
2021/10/12 10:01:57;;;;;;;12.90;10.07;;;10.90;99.90;;;;;;4954939;28;20429;-76
2021/10/12 10:04:24;;;;;;;15.17;10.20;;;10.80;99.90;;;;;;4955062;28;21027;-75
2021/10/12 10:06:52;;;;;;;16.77;11.07;;;10.90;99.90;;;;;;4955260;28;20434;-75
2021/10/12 10:09:21;;;;;;;16.73;11.10;;;10.90;99.90;;;;;;4954925;28;20434;-76
2021/10/12 10:11:47;;;;;;;18.57;11.60;;;11.00;99.90;;;;;;4954827;28;20440;-75
2021/10/12 10:14:14;;;;;;;17.30;10.60;;;11.10;99.90;;;;;;4954698;29;20429;-76
2021/10/12 10:16:49;;;;;;;18.20;11.53;;;11.20;99.90;;;;;;4953523;29;20189;-75
2021/10/12 10:19:18;;;;;;;19.60;13.00;;;11.40;99.90;;;;;;4954630;28;20510;-76
2021/10/12 10:21:48;;;;;;;19.50;11.73;;;11.50;99.90;;;;;;4953795;29;21044;-75
2021/10/12 10:24:38;;;;;;;13.40;11.10;;;11.70;99.90;;;;;;4954499;28;20420;-75
2021/10/12 10:27:05;;;;;;;18.17;11.03;;;11.80;99.90;;;;;;4954688;29;20459;-76
2021/10/12 10:29:37;;;;;;;23.80;11.73;;;11.90;99.90;;;;;;4953215;29;20419;-76
2021/10/12 10:32:22;;;;;;;15.70;11.63;;;12.10;99.90;;;;;;4953250;29;20441;-76
2021/10/12 10:35:02;;;;;;;20.43;10.97;;;12.20;99.90;;;;;;4953222;29;20754;-76
2021/10/12 10:37:33;;;;;;;20.10;10.03;;;12.30;99.90;;;;;;4955113;28;20467;-76
2021/10/12 10:40:26;;;;;;;14.40;9.60;;;12.60;99.90;;;;;;4954587;28;20413;-77
2021/10/12 10:42:54;;;;;;;10.40;7.20;;;13.00;99.90;;;;;;4945437;28;20444;-76
2021/10/12 10:45:37;;;;;;;9.80;6.27;;;13.40;99.90;;;;;;4954176;28;20462;-76
2021/10/12 10:48:04;;;;;;;13.60;6.70;;;13.50;99.90;;;;;;4954228;28;20417;-76
2021/10/12 10:50:33;;;;;;;10.07;5.70;;;13.40;99.90;;;;;;4954160;28;20409;-75
2021/10/12 10:53:01;;;;;;;12.80;6.83;;;13.20;99.90;;;;;;4954348;28;20467;-76
2021/10/12 10:55:33;;;;;;;10.03;6.37;;;12.80;99.90;;;;;;4954270;28;20412;-76
2021/10/12 10:58:05;;;;;;;10.10;5.73;;;12.60;99.90;;;;;;4954344;28;20423;-77
2021/10/12 11:00:44;;;;;;;14.27;6.23;;;12.50;99.90;;;;;;4954164;29;20496;-76
2021/10/12 11:03:36;;;;;;;8.63;6.13;;;12.40;99.90;;;;;;4953852;28;20436;-77
2021/10/12 11:06:13;;;;;;;12.93;6.10;;;12.40;99.90;;;;;;4954253;28;21094;-76
2021/10/12 11:09:03;;;;;;;11.17;5.50;;;12.30;99.90;;;;;;4954491;28;20412;-76
2021/10/12 11:11:35;;;;;;;18.70;5.80;;;12.30;99.90;;;;;;4954392;28;20821;-76
2021/10/12 11:14:02;;;;;;;10.30;5.47;;;12.30;99.90;;;;;;4953956;28;20830;-77
2021/10/12 11:16:35;;;;;;;8.53;5.50;;;12.30;99.90;;;;;;4954210;28;20417;-77
2021/10/12 11:19:02;;;;;;;11.93;5.27;;;12.20;99.90;;;;;;4951463;28;20420;-79
2021/10/12 11:21:28;;;;;;;4.90;4.17;;;12.20;99.90;;;;;;4962824;28;20439;-76
2021/10/12 11:24:02;;;;;;;6.23;3.63;;;12.30;99.90;;;;;;4958909;28;20427;-76
2021/10/12 11:26:28;;;;;;;9.00;4.20;;;12.30;99.90;;;;;;4959574;28;20238;-75
2021/10/12 11:28:59;;;;;;;15.63;4.53;;;12.20;99.90;;;;;;4953568;28;20797;-78
2021/10/12 11:31:27;;;;;;;8.53;3.83;;;12.20;99.90;;;;;;4969217;28;20936;-78
2021/10/12 11:33:55;;;;;;;8.13;3.80;;;12.30;99.90;;;;;;4973293;28;20440;-77
2021/10/12 11:36:24;;;;;;;13.40;4.40;;;12.40;99.90;;;;;;4972120;28;20439;-77
2021/10/12 11:38:54;;;;;;;12.93;4.50;;;12.60;99.90;;;;;;4973157;28;20415;-77
2021/10/12 11:41:31;;;;;;;8.63;4.63;;;12.80;99.90;;;;;;4973151;28;20427;-77
2021/10/12 11:44:12;;;;;;;5.87;3.40;;;13.00;99.90;;;;;;4972794;28;20422;-77
2021/10/12 11:46:47;;;;;;;8.53;4.13;;;13.10;99.90;;;;;;4971944;28;20891;-76
2021/10/12 11:49:15;;;;;;;9.63;4.07;;;13.10;99.90;;;;;;4971700;28;20426;-78
2021/10/12 11:51:43;;;;;;;9.10;3.77;;;12.90;99.90;;;;;;4972973;28;20437;-78
2021/10/12 11:54:09;;;;;;;4.40;4.00;;;12.80;99.90;;;;;;4971755;28;21023;-77
2021/10/12 11:56:36;;;;;;;7.53;3.80;;;12.80;99.90;;;;;;4971832;28;20486;-77
2021/10/12 11:59:05;;;;;;;6.60;3.37;;;12.90;99.90;;;;;;4971779;28;20423;-77
2021/10/12 12:01:32;;;;;;;6.67;3.50;;;13.00;99.90;;;;;;4974311;28;20446;-76
2021/10/12 12:03:59;;;;;;;11.53;3.30;;;13.00;99.90;;;;;;4977285;28;20786;-77
2021/10/12 12:06:28;;;;;;;9.13;4.00;;;13.10;99.90;;;;;;4977289;28;21039;-76
2021/10/12 12:08:55;;;;;;;5.13;3.23;;;13.20;99.90;;;;;;4977159;28;20445;-77
2021/10/12 12:11:26;;;;;;;7.53;3.60;;;13.30;99.90;;;;;;4977046;28;20431;-76
2021/10/12 12:13:53;;;;;;;9.70;3.63;;;13.50;99.90;;;;;;4976341;28;20414;-78
2021/10/12 12:16:20;;;;;;;3.60;3.10;;;13.90;99.90;;;;;;4976425;28;20411;-77
2021/10/12 12:18:46;;;;;;;16.23;3.90;;;14.30;99.90;;;;;;4975441;28;20442;-78
2021/10/12 12:21:12;;;;;;;12.77;3.27;;;14.50;99.90;;;;;;4976204;28;20549;-76
2021/10/12 12:23:41;;;;;;;3.87;3.50;;;14.60;99.90;;;;;;4975349;28;20179;-77
2021/10/12 12:26:12;;;;;;;6.03;3.90;;;14.40;99.90;;;;;;4975974;28;20227;-78
2021/10/12 12:28:39;;;;;;;4.10;3.60;;;14.20;99.90;;;;;;4976149;28;20409;-77
2021/10/12 12:31:25;;;;;;;8.40;5.13;;;13.90;99.90;;;;;;4978666;28;20434;-77
2021/10/12 12:33:53;;;;;;;9.57;4.07;;;13.70;99.90;;;;;;4976218;28;20407;-77
2021/10/12 12:36:30;;;;;;;10.10;4.80;;;13.60;99.90;;;;;;4960365;28;20419;-77
2021/10/12 12:39:04;;;;;;;8.37;4.60;;;13.20;99.90;;;;;;4956502;28;20446;-77
2021/10/12 12:41:37;;;;;;;9.40;4.10;;;13.00;99.90;;;;;;4956450;28;20427;-77
2021/10/12 12:44:04;;;;;;;9.57;4.90;;;12.90;99.90;;;;;;4958548;28;20458;-76
2021/10/12 12:46:29;;;;;;;5.60;3.60;;;12.90;99.90;;;;;;4975877;28;20458;-77
2021/10/12 12:49:05;;;;;;;8.97;3.70;;;12.80;99.90;;;;;;4969615;28;20434;-76
2021/10/12 12:51:33;;;;;;;5.80;3.47;;;12.90;99.90;;;;;;4956242;28;20223;-77
2021/10/12 12:54:01;;;;;;;5.83;4.37;;;13.00;99.90;;;;;;4954747;29;20504;-78
2021/10/12 12:56:35;;;;;;;7.33;4.20;;;13.00;99.90;;;;;;4956447;28;20423;-77
2021/10/12 12:59:10;;;;;;;7.20;3.93;;;13.00;99.90;;;;;;4956180;28;20419;-78
2021/10/12 13:01:36;;;;;;;6.93;4.50;;;13.10;99.90;;;;;;4956423;28;20976;-76
2021/10/12 13:04:03;;;;;;;8.33;3.73;;;13.20;99.90;;;;;;4955001;29;20958;-77
2021/10/12 13:06:28;;;;;;;7.20;4.60;;;13.30;99.90;;;;;;4955514;28;20464;-77
2021/10/12 13:09:02;;;;;;;6.40;4.17;;;13.40;99.90;;;;;;4952352;29;20419;-77
2021/10/12 13:11:31;;;;;;;6.70;4.87;;;13.40;99.90;;;;;;4948518;29;20256;-77
2021/10/12 13:13:59;;;;;;;11.83;3.90;;;13.30;99.90;;;;;;4958061;28;20411;-77
2021/10/12 13:16:24;;;;;;;6.30;4.17;;;13.20;99.90;;;;;;4965444;28;20447;-77
2021/10/12 13:18:50;;;;;;;7.30;4.37;;;13.20;99.90;;;;;;4952860;29;20441;-78
2021/10/12 13:21:16;;;;;;;8.33;4.33;;;13.30;99.90;;;;;;4955639;28;20212;-77
2021/10/12 13:23:41;;;;;;;7.13;4.37;;;13.40;99.90;;;;;;4955704;28;20176;-78
2021/10/12 13:26:07;;;;;;;6.83;3.87;;;13.50;99.90;;;;;;4952505;28;20299;-76
2021/10/12 13:28:32;;;;;;;7.03;4.23;;;13.50;99.90;;;;;;4954172;29;20187;-78
2021/10/12 13:30:58;;;;;;;4.33;3.47;;;13.40;99.90;;;;;;4953887;28;20204;-77
2021/10/12 13:33:23;;;;;;;6.70;4.53;;;13.30;99.90;;;;;;4967019;28;20180;-80
2021/10/12 13:35:49;;;;;;;4.90;4.40;;;13.30;99.90;;;;;;4975007;28;20172;-77
2021/10/12 13:38:16;;;;;;;7.37;4.63;;;13.30;99.90;;;;;;4973267;28;20184;-77
2021/10/12 13:40:42;;;;;;;9.90;4.60;;;13.20;99.90;;;;;;4973075;28;20179;-77
2021/10/12 13:43:07;;;;;;;8.70;4.57;;;13.10;99.90;;;;;;4974653;28;20917;-77
2021/10/12 13:45:33;;;;;;;7.77;4.83;;;13.10;99.90;;;;;;4972172;28;20219;-76
2021/10/12 13:47:58;;;;;;;6.80;4.57;;;13.00;99.90;;;;;;4972503;28;20179;-77
2021/10/12 13:50:24;;;;;;;10.57;4.53;;;12.90;99.90;;;;;;4973696;28;20653;-78
2021/10/12 13:52:50;;;;;;;11.27;5.20;;;12.90;99.90;;;;;;4974017;28;20205;-78
2021/10/12 13:55:16;;;;;;;8.23;4.27;;;12.80;99.90;;;;;;4972206;28;20263;-76
2021/10/12 13:57:41;;;;;;;6.20;4.30;;;12.60;99.90;;;;;;4974469;28;20427;-77
2021/10/12 14:00:09;;;;;;;12.50;4.13;;;12.60;99.90;;;;;;4972520;28;20192;-76
2021/10/12 14:02:37;;;;;;;11.07;3.93;;;12.60;99.90;;;;;;4970878;28;20298;-78
2021/10/12 14:05:03;;;;;;;9.83;4.70;;;12.60;99.90;;;;;;4973005;28;20463;-78
2021/10/12 14:07:29;;;;;;;10.93;5.03;;;12.70;99.90;;;;;;4957368;28;20475;-77
2021/10/12 14:09:54;;;;;;;6.50;4.53;;;12.60;99.90;;;;;;4952020;28;20436;-78
2021/10/12 14:12:20;;;;;;;12.30;4.53;;;12.70;99.90;;;;;;4952365;28;20195;-77
2021/10/12 14:14:46;;;;;;;6.40;4.07;;;12.60;99.90;;;;;;4956069;28;20219;-77
2021/10/12 14:17:12;;;;;;;6.03;3.67;;;12.60;99.90;;;;;;4950009;28;20291;-78
2021/10/12 14:19:38;;;;;;;5.50;4.87;;;12.60;99.90;;;;;;4951744;28;20335;-78
2021/10/12 14:22:04;;;;;;;11.97;5.10;;;12.50;99.90;;;;;;4951960;28;20523;-76
2021/10/12 14:24:30;;;;;;;6.77;4.40;;;12.60;99.90;;;;;;4953798;28;20463;-77
2021/10/12 14:26:56;;;;;;;6.97;4.60;;;12.50;99.90;;;;;;4955595;28;20435;-78
2021/10/12 14:29:24;;;;;;;8.00;4.43;;;12.50;99.90;;;;;;4952394;28;20436;-79
2021/10/12 14:31:49;;;;;;;9.43;4.53;;;12.50;99.90;;;;;;4949991;28;20203;-77
2021/10/12 14:34:15;;;;;;;6.30;4.20;;;12.40;99.90;;;;;;4963740;28;20432;-78
2021/10/12 14:36:40;;;;;;;7.30;4.90;;;12.40;99.90;;;;;;4957703;28;20210;-80
2021/10/12 14:39:06;;;;;;;5.30;4.80;;;12.30;99.90;;;;;;4950294;28;20184;-78
2021/10/12 14:41:32;;;;;;;6.37;4.90;;;12.20;99.90;;;;;;4961523;28;20697;-77
2021/10/12 14:43:57;;;;;;;12.43;5.83;;;12.20;99.90;;;;;;4955468;28;20192;-78
2021/10/12 14:46:30;;;;;;;6.20;4.63;;;12.10;99.90;;;;;;4964946;28;20211;-79
2021/10/12 14:48:59;;;;;;;11.40;4.60;;;12.00;99.90;;;;;;4960661;28;20191;-78
2021/10/12 14:51:25;;;;;;;8.50;4.80;;;12.00;99.90;;;;;;4959897;28;20460;-78
2021/10/12 14:53:51;;;;;;;11.60;5.60;;;12.10;99.90;;;;;;4957605;28;20439;-78
2021/10/12 14:56:16;;;;;;;8.60;4.50;;;12.10;99.90;;;;;;4955359;28;20798;-78
2021/10/12 14:58:42;;;;;;;6.73;4.13;;;12.10;99.90;;;;;;4955751;28;20448;-77
2021/10/12 15:01:10;;;;;;;8.83;4.57;;;12.10;99.90;;;;;;4954734;28;20670;-77
2021/10/12 15:03:35;;;;;;;4.13;3.73;;;12.10;99.90;;;;;;4950962;28;20208;-77
2021/10/12 15:06:01;;;;;;;10.70;4.57;;;12.00;99.90;;;;;;4960684;28;20498;-78
2021/10/12 15:08:27;;;;;;;3.70;3.40;;;12.00;99.90;;;;;;4950671;28;20188;-78
2021/10/12 15:10:52;;;;;;;4.23;3.33;;;12.00;99.90;;;;;;4953229;28;20192;-77
2021/10/12 15:13:18;;;;;;;6.37;3.93;;;12.00;99.90;;;;;;4966493;28;20238;-79
2021/10/12 15:15:44;;;;;;;10.13;4.77;;;11.90;99.90;;;;;;4952071;28;20200;-79
2021/10/12 15:18:10;;;;;;;9.50;4.87;;;11.90;99.90;;;;;;4958126;28;20181;-76
2021/10/12 15:20:36;;;;;;;11.07;4.20;;;11.90;99.90;;;;;;4958900;28;20184;-78
2021/10/12 15:23:01;;;;;;;11.33;4.37;;;11.90;99.90;;;;;;4960676;28;20435;-78
2021/10/12 15:25:27;;;;;;;5.77;4.47;;;11.80;99.90;;;;;;4956325;28;20212;-76
2021/10/12 15:27:53;;;;;;;4.73;4.20;;;11.80;99.90;;;;;;4967647;28;20188;-77
2021/10/12 15:30:19;;;;;;;7.05;4.55;;;11.80;99.90;;;;;;4967089;28;20493;-76
2021/10/12 15:32:48;;;;;;;8.55;5.18;;;11.80;99.90;;;;;;4968315;28;20548;-77
2021/10/12 15:35:18;;;;;;;10.00;4.70;;;11.80;99.90;;;;;;4969564;28;20183;-79
2021/10/12 15:37:44;;;;;;;11.27;4.23;;;11.80;99.90;;;;;;4965794;28;20416;-77
2021/10/12 15:40:11;;;;;;;8.27;4.93;;;11.70;99.90;;;;;;4966788;28;20410;-77
2021/10/12 15:42:37;;;;;;;5.20;4.20;;;11.70;99.90;;;;;;4950850;28;20196;-77
2021/10/12 15:45:04;;;;;;;13.73;4.20;;;11.60;99.90;;;;;;4948767;28;20456;-77
2021/10/12 15:47:29;;;;;;;7.30;3.80;;;11.60;99.90;;;;;;4948668;28;20732;-77
2021/10/12 15:49:55;;;;;;;5.73;4.43;;;11.60;99.90;;;;;;4957472;28;20431;-76
2021/10/12 15:52:22;;;;;;;7.67;3.77;;;11.60;99.90;;;;;;4960535;28;20204;-76
2021/10/12 15:54:48;;;;;;;5.40;3.30;;;11.50;99.90;;;;;;4968567;28;20179;-76
2021/10/12 15:57:14;;;;;;;7.83;3.57;;;11.60;99.90;;;;;;4965038;28;20799;-76
2021/10/12 15:59:42;;;;;;;10.70;3.30;;;11.50;99.90;;;;;;4956923;28;20184;-78
2021/10/12 16:02:07;;;;;;;9.90;4.20;;;11.50;99.90;;;;;;4955597;28;20523;-77
2021/10/12 16:04:33;;;;;;;6.67;3.60;;;11.50;99.90;;;;;;4949761;28;20435;-76
2021/10/12 16:06:59;;;;;;;8.13;3.60;;;11.40;99.90;;;;;;4950849;29;20267;-77
2021/10/12 16:09:24;;;;;;;7.07;4.07;;;11.50;99.90;;;;;;4947707;28;20184;-77
2021/10/12 16:11:50;;;;;;;5.10;3.30;;;11.40;99.90;;;;;;4949691;28;20227;-77
2021/10/12 16:14:17;;;;;;;6.20;4.47;;;11.40;99.90;;;;;;4967071;28;20192;-77
2021/10/12 16:21:55;;;;;;;14.33;4.67;;;11.20;99.90;;;;;;4951039;28;20448;-78
2021/10/12 16:24:24;;;;;;;6.57;4.70;;;11.20;99.90;;;;;;4958869;28;20929;-77
2021/10/12 16:26:51;;;;;;;11.60;5.37;;;11.20;99.90;;;;;;4964019;28;20874;-76
2021/10/12 16:29:19;;;;;;;6.07;4.73;;;11.10;99.90;;;;;;4968010;28;20939;-79
2021/10/12 16:31:49;;;;;;;6.10;4.73;;;11.10;99.90;;;;;;4966108;28;20443;-75
2021/10/12 16:34:20;;;;;;;13.07;5.47;;;11.10;99.90;;;;;;4950341;28;20436;-80
2021/10/12 16:36:51;;;;;;;12.23;5.23;;;11.10;99.90;;;;;;4951304;28;20502;-73
2021/10/12 16:39:17;;;;;;;5.67;5.17;;;11.10;99.90;;;;;;4952157;28;20406;-77
2021/10/12 16:41:43;;;;;;;8.30;5.17;;;11.00;99.90;;;;;;4950856;28;20934;-74
2021/10/12 16:44:08;;;;;;;8.43;5.57;;;10.90;99.90;;;;;;4949308;28;20476;-77
2021/10/12 16:46:34;;;;;;;8.57;5.23;;;10.90;99.90;;;;;;4959320;28;20697;-76
2021/10/12 16:49:01;;;;;;;12.47;5.80;;;10.90;99.90;;;;;;4957252;28;20420;-74
2021/10/12 16:51:27;;;;;;;9.60;5.67;;;10.90;99.90;;;;;;4960720;28;20512;-77
2021/10/12 16:53:53;;;;;;;8.17;5.30;;;10.80;99.90;;;;;;4961488;28;20444;-76
2021/10/12 16:56:19;;;;;;;10.23;5.43;;;10.70;99.90;;;;;;4972012;28;20461;-77
2021/10/12 16:58:47;;;;;;;14.23;6.63;;;10.70;99.90;;;;;;4969691;28;20582;-76
2021/10/12 17:01:13;;;;;;;13.53;5.70;;;10.70;99.90;;;;;;4954007;28;20199;-77
2021/10/12 17:03:38;;;;;;;12.27;6.13;;;10.60;99.90;;;;;;4953014;28;20450;-77
2021/10/12 17:06:04;;;;;;;11.13;5.80;;;10.60;99.90;;;;;;4955373;28;20225;-74
2021/10/12 17:08:31;;;;;;;13.10;5.73;;;10.50;99.90;;;;;;4963368;28;20186;-76
2021/10/12 17:10:57;;;;;;;8.50;4.80;;;10.50;99.90;;;;;;4958419;28;20205;-78
2021/10/12 17:13:23;;;;;;;9.30;5.73;;;10.50;99.90;;;;;;4958140;28;20954;-78
2021/10/12 17:15:49;;;;;;;7.63;5.80;;;10.50;99.90;;;;;;4971547;28;20436;-77
2021/10/12 17:18:14;;;;;;;15.37;8.63;;;10.50;99.90;;;;;;4972140;28;20192;-76
2021/10/12 17:20:40;;;;;;;7.93;6.80;;;10.40;99.90;;;;;;4968932;28;20566;-76